Report METAR

 

KSJC - San Jose, California, USA
Distance from station: NE 14km
Dati ricevuti: 16/05/2021 21:53
Few Clouds
Few Clouds
 Vento da Variabile
Vento: Variabile 6 km/h
Temperatura: 19°C
P.to Rugiada: 9°C
Umidità: 52%
Barometro: 1014.2 hPa
Nuvole: Few Clouds
Visibility: 16 km
Cloud details: Few Clouds 213 m
Few Clouds 823 m
Few Clouds 4877 m
2021/05/16 19:53 KSJC 161953Z VRB03KT 10SM FEW007 FEW027 FEW160 19/09 A2995 RMK AO2 SLP139 T01940089
KNUQ - Moffett Nas/Mtn, California, USA
Distance from station: N 14km
Dati ricevuti: 14/04/2021 00:40
DATI Obsoleti

 
2021/04/13 22:40 KNUQ 132240Z AUTO RMK AO2 PNO PWINO TSNO
 
KPAO - Palo Alto, California, USA
Distance from station: NNO 23km
Dati ricevuti: 16/05/2021 21:47
Few Clouds
Few Clouds
 Vento da N
Vento: N 22 km/h
Temperatura: 18°C
P.to Rugiada: 11°C
Umidità: 64%
Barometro: 1014.6 hPa
Nuvole: Few Clouds
Visibility: 16 km
Cloud details: Few Clouds 610 m
2021/05/16 19:47 KPAO 161947Z 36012KT 10SM FEW020 18/11 A2996
KRHV - San Jose/Reid, California, USA
Distance from station: ENE 19km
Dati ricevuti: 16/05/2021 21:55
Sereno
Sereno
 Vento da SSE
Vento: SSE 7 km/h
Temperatura: 20°C
P.to Rugiada: 9°C
Umidità: 49%
Barometro: 1014.2 hPa
Nuvole: Sereno
Visibility: 16 km
2021/05/16 19:55 KRHV 161955Z 16004KT 10SM SKC 20/09 A2995
 
KOAK - Oakland, California, USA
Distance from station: NNO 50km
Dati ricevuti: 16/05/2021 21:53
Molto nuvoloso
Molto nuvoloso
 Vento da ONO
Vento: ONO 19 km/h
Temperatura: 16°C
P.to Rugiada: 9°C
Umidità: 63%
Barometro: 1015.2 hPa
Nuvole: Molto nuvoloso
Visibility: 16 km
Cloud details: Few Clouds 366 m
Molto nuvoloso 610 m
2021/05/16 19:53 KOAK 161953Z 29010KT 10SM FEW012 BKN020 16/09 A2998 RMK AO2 SLP153 T01610094 $
KSQL - San Carlos Airpo, California, USA
Distance from station: NO 34km
Dati ricevuti: 16/05/2021 21:50
Few Clouds
Few Clouds
 Vento da OSO
Vento: OSO 22 km/h, Raffica: 33 km/h
Temperatura: 18°C
P.to Rugiada: 9°C
Umidità: 56%
Barometro: 1014.6 hPa
Nuvole: Few Clouds
Visibility: 16 km
Cloud details: Few Clouds 610 m
2021/05/16 19:50 KSQL 161950Z 25012G18KT 10SM FEW020 18/09 A2996
 
KSFO - San Francisco, California, USA
Distance from station: NO 49km
Dati ricevuti: 16/05/2021 21:56
Parz. nuvoloso
Parz. nuvoloso
 Vento da S
Vento: S 13 km/h
Temperatura: 18°C
P.to Rugiada: 9°C
Umidità: 56%
Barometro: 1014.9 hPa
Nuvole: Parz. nuvoloso
Visibility: 16 km
Cloud details: Few Clouds 274 m
Parz. nuvoloso 762 m
2021/05/16 19:56 KSFO 161956Z 19007KT 10SM FEW009 SCT025 18/09 A2997 RMK AO2 SLP147 T01780089 $
KE16 - San Martin, California, USA
Distance from station: ESE 43km
Dati ricevuti: 16/05/2021 22:15
Sereno
Sereno
 Vento da SSE
Vento: SSE 19 km/h, Raffica: 26 km/h
Temperatura: 17°C
P.to Rugiada: 8°C
Umidità: 56%
Barometro: 1015.6 hPa
Nuvole: Sereno
Visibility: 16 km
2021/05/16 20:15 KE16 162015Z AUTO 15010G14KT 10SM CLR 17/08 A2999 RMK AO2 PWINO PNO
 
KWVI - Watsonville, California, USA
Distance from station: SSE 44km
Dati ricevuti: 16/05/2021 21:53
Molto nuvoloso
Molto nuvoloso
 Vento da SO
Vento: SO 13 km/h
Temperatura: 17°C
P.to Rugiada: 9°C
Umidità: 59%
Barometro: 1016.3 hPa
Nuvole: Molto nuvoloso
Visibility: 16 km
Cloud details: Molto nuvoloso 579 m
2021/05/16 19:53 KWVI 161953Z AUTO 22007KT 10SM BKN019 17/09 A3001 RMK AO2 SLP162 T01670094
KHAF - Half Moon Bay, California, USA
Distance from station: ONO 50km
Dati ricevuti: 16/05/2021 22:15
Molto nuvoloso
Molto nuvoloso
 Vento da SO
Vento: SO 13 km/h
Temperatura: 12°C
P.to Rugiada: 10°C
Umidità: 88%
Barometro: 1016.3 hPa
Nuvole: Molto nuvoloso
Visibility: 11 km
Cloud details: Few Clouds 183 m
Parz. nuvoloso 488 m
Molto nuvoloso 640 m
2021/05/16 20:15 KHAF 162015Z AUTO 23007KT 190V250 7SM FEW006 SCT016 BKN021 12/10 A3001 RMK AO2
 
KHWD - Hayward, California, USA
Distance from station: N 44km
Dati ricevuti: 16/05/2021 21:54
Parz. nuvoloso
Parz. nuvoloso
 Vento da NO
Vento: NO 20 km/h
Temperatura: 16°C
P.to Rugiada: 9°C
Umidità: 63%
Barometro: 1014.9 hPa
Nuvole: Parz. nuvoloso
Visibility: 16 km
Cloud details: Parz. nuvoloso 610 m
2021/05/16 19:54 KHWD 161954Z 31011KT 10SM SCT020 16/09 A2997 RMK AO2 SLP158 T01560094
KLVK - Livermore, California, USA
Distance from station: NNE 51km
Dati ricevuti: 16/05/2021 22:18
Sereno
Sereno
 Vento da ONO
Vento: ONO 26 km/h
Temperatura: 21°C
P.to Rugiada: 8°C
Umidità: 43%
Barometro: 1013.2 hPa
Nuvole: Sereno
Visibility: 16 km
2021/05/16 20:18 KLVK 162018Z 29014KT 10SM CLR 21/08 A2992 RMK AO2 WSHFT 1958 T02110083